Time;durP1;ratioP1;P1;durP2;ratioP2;P2;SDS_P1;SDS_P2;PMS_P1;PMS_P2;Temp;Humidity;BMP_temperature;BMP_pressure;BME280_temperature;BME280_humidity;BME280_pressure;Samples;Min_cycle;Max_cycle;Signal;HPM_P1;HPM_P2
2022/08/09 00:02:07;;;;;;;0.00;0.00;;;;;;;21.14;46.80;102390.22;7358288;19;20458;-65
2022/08/09 00:04:34;;;;;;;0.00;0.00;;;;;;;21.04;46.30;102380.91;7351734;19;20022;-64
2022/08/09 00:07:00;;;;;;;0.05;0.05;;;;;;;21.04;45.36;102389.72;7357963;19;20014;-65
2022/08/09 00:09:25;;;;;;;0.00;0.00;;;;;;;21.04;46.89;102399.50;7357907;19;22362;-65
2022/08/09 00:11:51;;;;;;;0.00;0.00;;;;;;;20.94;46.66;102389.22;7359796;19;20109;-64
2022/08/09 00:14:17;;;;;;;0.00;0.00;;;;;;;20.95;46.63;102393.59;7358527;19;20020;-64
2022/08/09 00:16:42;;;;;;;0.00;0.00;;;;;;;20.91;47.09;102399.09;7359700;19;20010;-65
2022/08/09 00:19:08;;;;;;;0.00;0.00;;;;;;;20.88;46.84;102399.19;7360194;19;20013;-64
2022/08/09 00:21:34;;;;;;;0.00;0.00;;;;;;;20.74;46.66;102394.44;7358268;19;20129;-64
2022/08/09 00:24:00;;;;;;;0.10;0.10;;;;;;;20.77;46.08;102406.72;7360569;19;21487;-65
2022/08/09 00:26:26;;;;;;;0.00;0.00;;;;;;;20.69;47.71;102404.38;7358462;19;20010;-65
2022/08/09 00:28:52;;;;;;;0.00;0.00;;;;;;;20.62;47.29;102397.53;7361587;19;20030;-65
2022/08/09 00:31:18;;;;;;;0.00;0.00;;;;;;;20.55;48.50;102401.38;7365097;19;20044;-65
2022/08/09 00:33:44;;;;;;;0.00;0.00;;;;;;;20.50;46.69;102392.72;7362746;19;20473;-65
2022/08/09 00:36:10;;;;;;;0.00;0.00;;;;;;;20.45;47.68;102396.34;7360922;19;20006;-64
2022/08/09 00:38:36;;;;;;;0.00;0.00;;;;;;;20.42;48.90;102391.16;7362405;19;20029;-64
2022/08/09 00:41:01;;;;;;;0.00;0.00;;;;;;;20.30;48.29;102373.03;7361695;19;20014;-64
2022/08/09 00:43:26;;;;;;;0.00;0.00;;;;;;;20.31;48.70;102393.34;7362383;19;20010;-65
2022/08/09 00:45:52;;;;;;;0.03;0.03;;;;;;;20.21;48.89;102379.53;7362878;19;20010;-64
2022/08/09 00:48:17;;;;;;;0.00;0.00;;;;;;;20.13;48.35;102378.13;7360659;19;20006;-63
2022/08/09 00:50:43;;;;;;;0.00;0.00;;;;;;;20.06;50.03;102379.22;7360522;19;20604;-66
2022/08/09 00:53:09;;;;;;;0.10;0.10;;;;;;;19.99;49.61;102375.94;7361302;19;20034;-64
2022/08/09 00:55:35;;;;;;;0.00;0.00;;;;;;;19.96;50.59;102378.69;7362300;19;20098;-65
2022/08/09 00:58:00;;;;;;;0.00;0.00;;;;;;;19.92;50.50;102377.97;7361291;19;20339;-65
2022/08/09 01:00:26;;;;;;;0.00;0.00;;;;;;;19.92;50.36;102379.72;7360908;19;20123;-64
2022/08/09 01:03:09;;;;;;;0.10;0.10;;;;;;;19.94;49.43;102377.88;7360545;19;20006;-64
2022/08/09 01:05:58;;;;;;;0.00;0.00;;;;;;;19.96;47.83;102382.22;7364054;19;20068;-65
2022/08/09 01:08:59;;;;;;;0.00;0.00;;;;;;;19.97;50.39;102372.47;7361943;19;20637;-64
2022/08/09 01:11:37;;;;;;;0.00;0.00;;;;;;;19.98;50.03;102383.97;7252528;19;2004161;-65
2022/08/09 01:14:27;;;;;;;0.03;0.03;;;;;;;19.93;48.63;102377.03;7361703;19;20018;-64
2022/08/09 01:17:03;;;;;;;0.10;0.10;;;;;;;19.99;48.67;102380.38;7362555;19;20019;-65
2022/08/09 01:20:06;;;;;;;0.00;0.00;;;;;;;19.99;47.12;102380.38;7359951;19;20011;-65
2022/08/09 01:22:40;;;;;;;0.10;0.10;;;;;;;19.96;49.40;102391.94;7257149;19;2004284;-65
2022/08/09 01:25:24;;;;;;;0.00;0.00;;;;;;;19.90;49.84;102384.22;7361012;19;20085;-64
2022/08/09 01:27:55;;;;;;;0.00;0.00;;;;;;;19.85;49.53;102381.72;7365537;19;20018;-64
2022/08/09 01:30:24;;;;;;;0.00;0.00;;;;;;;19.78;49.60;102385.50;7369380;19;20013;-65
2022/08/09 01:32:51;;;;;;;0.00;0.00;;;;;;;19.72;49.94;102383.09;7365891;19;20023;-64
2022/08/09 01:35:39;;;;;;;0.00;0.00;;;;;;;19.67;47.08;102385.88;7369082;19;20014;-65
2022/08/09 01:38:09;;;;;;;0.08;0.08;;;;;;;19.60;49.66;102378.19;7264465;19;2004503;-64
2022/08/09 01:40:35;;;;;;;0.00;0.00;;;;;;;19.53;49.49;102373.97;7366765;19;20572;-64
2022/08/09 01:43:03;;;;;;;0.00;0.00;;;;;;;19.52;49.67;102385.50;7365920;19;20044;-64
2022/08/09 01:45:29;;;;;;;0.00;0.00;;;;;;;19.47;49.53;102383.00;7368064;19;20711;-63
2022/08/09 01:47:57;;;;;;;0.00;0.00;;;;;;;19.44;49.06;102378.66;7366373;19;20011;-64
2022/08/09 01:50:24;;;;;;;0.08;0.08;;;;;;;19.47;49.96;102387.44;7367588;19;20022;-64
2022/08/09 01:52:51;;;;;;;0.00;0.00;;;;;;;19.47;50.13;102387.44;7367651;19;20013;-64
2022/08/09 01:55:18;;;;;;;0.00;0.00;;;;;;;19.43;48.97;102384.88;7366843;19;20018;-65
2022/08/09 01:57:48;;;;;;;0.00;0.00;;;;;;;19.42;49.91;102385.81;7357897;19;20006;-64
2022/08/09 02:00:14;;;;;;;0.00;0.00;;;;;;;19.39;49.41;102390.31;7365485;19;20077;-64
2022/08/09 02:02:43;;;;;;;0.00;0.00;;;;;;;19.03;49.72;102329.69;7365897;19;20109;-64
2022/08/09 02:05:11;;;;;;;0.00;0.00;;;;;;;19.30;49.94;102386.19;7361912;19;20003;-65
2022/08/09 02:07:42;;;;;;;0.08;0.08;;;;;;;19.32;49.35;102394.09;7367015;19;20872;-65
2022/08/09 02:10:18;;;;;;;0.05;0.05;;;;;;;19.26;48.63;102376.63;7366139;19;20018;-65
2022/08/09 02:12:45;;;;;;;0.00;0.00;;;;;;;19.27;50.15;102391.59;7362941;19;20847;-64
2022/08/09 02:15:12;;;;;;;0.00;0.00;;;;;;;19.25;50.56;102396.06;7364582;19;20917;-64
2022/08/09 02:17:40;;;;;;;0.00;0.00;;;;;;;19.22;50.44;102398.81;7366631;19;20477;-64
2022/08/09 02:20:06;;;;;;;0.08;0.08;;;;;;;19.19;50.41;102393.63;7362790;19;20014;-64
2022/08/09 02:22:37;;;;;;;0.00;0.00;;;;;;;19.16;49.33;102385.78;7364732;19;20678;-64
2022/08/09 02:25:09;;;;;;;0.00;0.00;;;;;;;19.08;50.25;102380.72;7361310;19;20077;-65
2022/08/09 02:27:37;;;;;;;0.00;0.00;;;;;;;19.00;50.63;102373.91;7365635;19;20014;-65
2022/08/09 02:30:06;;;;;;;0.00;0.00;;;;;;;19.04;50.81;102388.81;7365611;19;20061;-65
2022/08/09 02:32:37;;;;;;;0.00;0.00;;;;;;;19.01;50.05;102388.88;7362345;19;20026;-64
2022/08/09 02:35:06;;;;;;;0.00;0.00;;;;;;;18.97;49.92;102384.63;7365782;19;20026;-64
2022/08/09 02:37:35;;;;;;;0.03;0.03;;;;;;;18.84;50.18;102366.44;7355997;19;20569;-64
2022/08/09 02:40:06;;;;;;;0.00;0.00;;;;;;;18.88;50.79;102383.13;7363305;19;20002;-65
2022/08/09 02:42:38;;;;;;;0.00;0.00;;;;;;;18.87;50.28;102386.69;7364431;19;20484;-64
2022/08/09 02:45:10;;;;;;;0.00;0.00;;;;;;;18.85;50.65;102389.34;7361101;19;20017;-65
2022/08/09 02:47:38;;;;;;;0.10;0.10;;;;;;;18.81;51.22;102387.75;7366094;19;20034;-63
2022/08/09 02:50:11;;;;;;;0.03;0.03;;;;;;;18.80;51.41;102385.97;7365330;19;20398;-64
2022/08/09 02:52:45;;;;;;;0.00;0.00;;;;;;;18.77;50.11;102377.28;7363579;19;20031;-64
2022/08/09 02:55:11;;;;;;;0.00;0.00;;;;;;;18.78;51.35;102387.81;7365679;19;20021;-65
2022/08/09 02:57:37;;;;;;;0.00;0.00;;;;;;;18.77;50.97;102380.78;7363112;19;20054;-63
2022/08/09 03:00:07;;;;;;;0.00;0.00;;;;;;;18.77;52.02;102375.50;7365981;19;20014;-65
2022/08/09 03:02:33;;;;;;;0.00;0.00;;;;;;;18.73;52.38;102368.56;7363261;19;20013;-64
2022/08/09 03:05:01;;;;;;;0.00;0.00;;;;;;;18.77;52.04;102372.00;7350307;19;20018;-65
2022/08/09 03:07:27;;;;;;;;;;;;;;;18.76;48.05;102373.78;7362913;19;20553;-65
2022/08/09 03:09:54;;;;;;;0.00;0.00;;;;;;;18.73;51.59;102373.84;7360045;19;20521;-63
2022/08/09 03:12:22;;;;;;;0.00;0.00;;;;;;;18.72;51.88;102377.44;7364047;19;20520;-65
2022/08/09 03:14:49;;;;;;;0.00;0.00;;;;;;;18.70;52.29;102381.88;7364890;19;20010;-65
2022/08/09 03:17:15;;;;;;;0.00;0.00;;;;;;;18.66;52.51;102380.22;7364547;19;20485;-65
2022/08/09 03:19:41;;;;;;;0.00;0.00;;;;;;;18.54;52.37;102362.91;7355236;19;20010;-65
2022/08/09 03:22:09;;;;;;;0.10;0.10;;;;;;;18.58;52.91;102377.78;7366264;19;20011;-64
2022/08/09 03:24:34;;;;;;;0.00;0.00;;;;;;;18.56;52.60;102376.97;7359020;19;20014;-65
2022/08/09 03:27:01;;;;;;;0.00;0.00;;;;;;;18.54;52.34;102383.22;7364526;19;20006;-64
2022/08/09 03:29:27;;;;;;;0.00;0.00;;;;;;;18.51;52.65;102384.19;7364599;19;20034;-65
2022/08/09 03:31:54;;;;;;;0.00;0.00;;;;;;;18.48;53.45;102378.97;7363427;19;20026;-63
2022/08/09 03:34:19;;;;;;;0.00;0.00;;;;;;;18.46;52.76;102375.50;7364701;19;20331;-65
2022/08/09 03:36:45;;;;;;;0.00;0.00;;;;;;;18.42;52.41;102380.03;7363946;19;20038;-64
2022/08/09 03:39:10;;;;;;;0.00;0.00;;;;;;;18.37;53.26;102381.94;7360700;19;20038;-65
2022/08/09 03:41:36;;;;;;;0.00;0.00;;;;;;;18.40;53.51;102376.56;7365659;19;20026;-63
2022/08/09 03:44:01;;;;;;;0.00;0.00;;;;;;;18.37;52.83;102366.06;7364082;19;20454;-64
2022/08/09 03:46:27;;;;;;;0.00;0.00;;;;;;;18.37;53.18;102366.06;7366218;19;20018;-65
2022/08/09 03:48:56;;;;;;;0.00;0.00;;;;;;;18.35;52.86;102367.91;7363287;19;20002;-64
2022/08/09 03:51:27;;;;;;;0.00;0.00;;;;;;;18.21;53.46;102342.75;7366001;19;20449;-64
2022/08/09 03:53:53;;;;;;;0.00;0.00;;;;;;;18.33;53.25;102360.91;7364476;19;20006;-64
2022/08/09 03:56:19;;;;;;;0.00;0.00;;;;;;;18.31;53.54;102355.66;7364905;19;20768;-65
2022/08/09 03:58:44;;;;;;;0.00;0.00;;;;;;;18.30;54.01;102358.34;7362491;19;20010;-65
2022/08/09 04:01:10;;;;;;;0.00;0.00;;;;;;;18.12;53.93;102335.94;7365922;19;20418;-64
2022/08/09 04:03:38;;;;;;;0.00;0.00;;;;;;;18.26;53.85;102365.50;7361289;19;20500;-64
2022/08/09 04:06:04;;;;;;;0.00;0.00;;;;;;;18.26;53.70;102362.84;7366427;19;20022;-64
2022/08/09 04:08:30;;;;;;;0.00;0.00;;;;;;;18.24;53.95;102351.44;7361516;19;20110;-64
2022/08/09 04:10:55;;;;;;;0.00;0.00;;;;;;;18.23;54.38;102347.06;7365330;19;20484;-65
2022/08/09 04:13:21;;;;;;;0.00;0.00;;;;;;;18.20;54.09;102357.75;7362398;19;20034;-65
2022/08/09 04:15:46;;;;;;;0.00;0.00;;;;;;;18.16;53.85;102361.38;7364596;19;20065;-65
2022/08/09 04:18:12;;;;;;;0.00;0.00;;;;;;;18.14;53.58;102358.75;7364694;19;20010;-65
2022/08/09 04:20:37;;;;;;;0.05;0.05;;;;;;;18.13;54.04;102364.09;7361392;19;20006;-64
2022/08/09 04:23:04;;;;;;;0.00;0.00;;;;;;;18.04;54.13;102356.41;7363831;19;20006;-64
2022/08/09 04:25:30;;;;;;;0.00;0.00;;;;;;;18.02;53.72;102363.53;7364477;19;20006;-65
2022/08/09 04:27:56;;;;;;;0.00;0.00;;;;;;;18.05;53.79;102374.91;7362880;19;20339;-64
2022/08/09 04:30:24;;;;;;;0.00;0.00;;;;;;;18.05;54.09;102379.31;7361079;19;21592;-64
2022/08/09 04:32:50;;;;;;;0.00;0.00;;;;;;;18.03;54.29;102378.47;7363603;19;20021;-65
2022/08/09 04:35:16;;;;;;;0.00;0.00;;;;;;;18.03;54.89;102382.00;7360123;19;20061;-64
2022/08/09 04:37:41;;;;;;;0.00;0.00;;;;;;;18.02;54.45;102380.25;7364601;19;20014;-64
2022/08/09 04:40:08;;;;;;;0.00;0.00;;;;;;;18.01;53.88;102382.97;7363353;19;21388;-65
2022/08/09 04:42:33;;;;;;;0.00;0.00;;;;;;;17.99;54.63;102385.63;7361473;19;20014;-64
2022/08/09 04:44:59;;;;;;;0.00;0.00;;;;;;;17.88;54.22;102367.41;7361909;19;20100;-65
2022/08/09 04:47:26;;;;;;;0.00;0.00;;;;;;;17.92;54.22;102391.13;7360648;19;20379;-64
2022/08/09 04:49:53;;;;;;;0.00;0.00;;;;;;;17.88;54.21;102390.31;7363480;19;20062;-64
2022/08/09 04:52:23;;;;;;;0.00;0.00;;;;;;;17.86;54.10;102400.94;7363099;19;20035;-65
2022/08/09 04:54:50;;;;;;;0.00;0.00;;;;;;;17.83;53.92;102395.72;7364345;19;20029;-65
2022/08/09 04:57:16;;;;;;;0.00;0.00;;;;;;;17.78;54.92;102387.06;7362101;19;20125;-64
2022/08/09 04:59:41;;;;;;;0.00;0.00;;;;;;;17.75;54.86;102397.72;7362537;19;20018;-64
2022/08/09 05:02:07;;;;;;;0.00;0.00;;;;;;;17.70;55.11;102391.66;7360603;19;20083;-64
2022/08/09 05:04:32;;;;;;;0.00;0.00;;;;;;;17.66;55.34;102403.19;7363499;19;20022;-64
2022/08/09 05:06:58;;;;;;;0.00;0.00;;;;;;;17.60;55.46;102400.72;7360843;19;20043;-64
2022/08/09 05:09:23;;;;;;;0.00;0.00;;;;;;;17.55;55.44;102405.25;7363726;19;20013;-63
2022/08/09 05:11:49;;;;;;;0.00;0.00;;;;;;;17.51;56.08;102403.59;7358002;19;20011;-64
2022/08/09 05:14:14;;;;;;;0.00;0.00;;;;;;;17.45;55.96;102403.72;7363042;19;20042;-65
2022/08/09 05:16:40;;;;;;;0.00;0.00;;;;;;;17.39;56.19;102404.75;7362819;19;20015;-64
2022/08/09 05:19:05;;;;;;;0.00;0.00;;;;;;;17.30;55.88;102395.28;7361977;19;20010;-64
2022/08/09 05:21:31;;;;;;;0.00;0.00;;;;;;;17.29;56.25;102397.97;7362723;19;20011;-64
2022/08/09 05:23:57;;;;;;;0.00;0.00;;;;;;;17.23;56.54;102396.28;7359202;19;20007;-64
2022/08/09 05:26:23;;;;;;;0.00;0.00;;;;;;;17.12;56.75;102378.06;7361002;19;20002;-65
2022/08/09 05:28:48;;;;;;;0.00;0.00;;;;;;;17.16;57.16;102392.06;7361772;19;20007;-64
2022/08/09 05:31:13;;;;;;;0.00;0.00;;;;;;;17.16;57.22;102396.50;7360912;19;20011;-65
2022/08/09 05:33:39;;;;;;;0.00;0.00;;;;;;;17.14;57.42;102403.59;7359522;19;20010;-64
2022/08/09 05:36:04;;;;;;;0.00;0.00;;;;;;;17.09;57.52;102408.97;7360835;19;20034;-65
2022/08/09 05:38:31;;;;;;;0.00;0.00;;;;;;;17.13;57.80;102418.53;7362283;19;20011;-65
2022/08/09 05:40:57;;;;;;;0.00;0.00;;;;;;;17.13;57.41;102423.81;7357545;19;20046;-64
2022/08/09 05:43:22;;;;;;;0.00;0.00;;;;;;;17.09;57.21;102412.47;7360231;19;20023;-64
2022/08/09 05:45:48;;;;;;;0.00;0.00;;;;;;;17.06;57.57;102398.47;7362404;19;20011;-65
2022/08/09 05:48:13;;;;;;;0.00;0.00;;;;;;;17.09;57.78;102414.25;7361675;19;20472;-65
2022/08/09 05:50:40;;;;;;;0.05;0.05;;;;;;;17.14;57.98;102425.56;7361733;19;20053;-64
2022/08/09 05:53:06;;;;;;;0.00;0.00;;;;;;;17.15;58.37;102427.31;7359157;19;20082;-65
2022/08/09 05:55:31;;;;;;;0.10;0.10;;;;;;;17.05;57.99;102404.66;7362434;19;20015;-65
2022/08/09 05:57:57;;;;;;;0.00;0.00;;;;;;;17.09;58.23;102406.34;7351735;19;20034;-64
2022/08/09 06:00:27;;;;;;;0.08;0.08;;;;;;;17.20;58.37;102422.78;7356380;19;20022;-65
2022/08/09 06:02:55;;;;;;;0.00;0.00;;;;;;;17.23;58.27;102420.06;7357955;19;20017;-65
2022/08/09 06:05:20;;;;;;;0.00;0.00;;;;;;;17.25;58.36;102433.25;7355317;19;20884;-64
2022/08/09 06:07:46;;;;;;;0.10;0.10;;;;;;;17.27;58.18;102427.00;7360448;19;20011;-65
2022/08/09 06:10:14;;;;;;;0.00;0.00;;;;;;;17.27;58.50;102429.66;7359622;19;20023;-64
2022/08/09 06:12:40;;;;;;;0.00;0.00;;;;;;;17.17;58.90;102404.38;7362141;19;20924;-64
2022/08/09 06:15:06;;;;;;;0.00;0.00;;;;;;;17.36;58.83;102432.09;7364389;19;20019;-65
2022/08/09 06:17:32;;;;;;;0.00;0.00;;;;;;;17.41;58.63;102439.03;7364980;19;20256;-65
2022/08/09 06:19:57;;;;;;;0.00;0.00;;;;;;;17.45;58.93;102443.34;7366355;19;20134;-64
2022/08/09 06:22:23;;;;;;;0.00;0.00;;;;;;;17.50;58.92;102449.41;7367074;19;20017;-65
2022/08/09 06:24:48;;;;;;;0.00;0.00;;;;;;;17.54;59.11;102451.06;7364033;19;20542;-65
2022/08/09 06:27:13;;;;;;;0.00;0.00;;;;;;;17.59;58.93;102451.81;7367101;19;20021;-65
2022/08/09 06:29:39;;;;;;;0.00;0.00;;;;;;;17.64;58.80;102447.28;7365733;19;20370;-64
2022/08/09 06:32:05;;;;;;;0.00;0.00;;;;;;;17.71;59.19;102451.50;7363434;19;20019;-65
2022/08/09 06:34:30;;;;;;;0.00;0.00;;;;;;;17.76;59.66;102446.16;7363861;19;20032;-64
2022/08/09 06:36:55;;;;;;;0.10;0.10;;;;;;;17.80;59.67;102448.69;7366987;19;20014;-65
2022/08/09 06:39:21;;;;;;;0.00;0.00;;;;;;;17.85;58.77;102452.06;7364881;19;20011;-65
2022/08/09 06:41:47;;;;;;;0.00;0.00;;;;;;;17.88;59.29;102451.97;7365816;19;20006;-65
2022/08/09 06:44:13;;;;;;;0.10;0.10;;;;;;;17.95;59.73;102452.72;7363819;19;20017;-64
2022/08/09 06:46:40;;;;;;;0.00;0.00;;;;;;;17.92;59.64;102436.91;7365096;19;20464;-65
2022/08/09 06:49:05;;;;;;;0.07;0.07;;;;;;;18.06;59.19;102461.22;7363875;19;20018;-65
2022/08/09 06:51:32;;;;;;;0.10;0.10;;;;;;;18.12;59.48;102457.56;7363601;19;20006;-64
2022/08/09 06:53:57;;;;;;;0.00;0.00;;;;;;;18.18;59.24;102459.16;7358921;19;20485;-65
2022/08/09 06:56:23;;;;;;;0.00;0.00;;;;;;;18.24;59.49;102457.22;7362290;19;20011;-64
2022/08/09 06:58:48;;;;;;;0.00;0.00;;;;;;;18.23;59.38;102447.56;7362170;19;20027;-65
2022/08/09 07:01:14;;;;;;;0.00;0.00;;;;;;;18.30;59.26;102449.16;7364003;19;20019;-65
2022/08/09 07:03:39;;;;;;;0.00;0.00;;;;;;;18.42;59.23;102459.38;7358347;19;20018;-65
2022/08/09 07:06:05;;;;;;;0.08;0.08;;;;;;;18.50;59.36;102455.63;7362688;19;20737;-63
2022/08/09 07:08:33;;;;;;;0.00;0.00;;;;;;;18.55;59.38;102451.09;7361456;19;20010;-64
2022/08/09 07:10:58;;;;;;;0.00;0.00;;;;;;;18.53;60.03;102437.03;7351459;19;20010;-64
2022/08/09 07:13:23;;;;;;;0.10;0.10;;;;;;;18.69;59.92;102446.31;7361948;19;20024;-64
2022/08/09 07:15:49;;;;;;;0.00;0.00;;;;;;;18.75;59.68;102446.13;7362110;19;20869;-65
2022/08/09 07:18:14;;;;;;;0.00;0.00;;;;;;;18.81;59.07;102437.16;7354265;19;20091;-64
2022/08/09 07:20:40;;;;;;;0.00;0.00;;;;;;;18.84;59.50;102437.91;7361537;19;20007;-64
2022/08/09 07:23:05;;;;;;;0.10;0.10;;;;;;;18.92;59.57;102443.88;7356024;19;20015;-65
2022/08/09 07:25:31;;;;;;;0.10;0.10;;;;;;;18.99;59.84;102443.69;7357742;19;20109;-65
2022/08/09 07:27:56;;;;;;;0.00;0.00;;;;;;;19.07;60.02;102452.28;7358632;19;20014;-64
2022/08/09 07:30:22;;;;;;;0.00;0.00;;;;;;;19.13;59.18;102452.06;7365178;19;20013;-65
2022/08/09 07:32:47;;;;;;;0.00;0.00;;;;;;;19.17;59.58;102453.72;7360765;19;20014;-65
2022/08/09 07:35:12;;;;;;;0.00;0.00;;;;;;;19.25;59.46;102445.53;7364355;19;20019;-65
2022/08/09 07:37:40;;;;;;;0.10;0.10;;;;;;;19.33;59.44;102454.09;7363668;19;20007;-65
2022/08/09 07:40:06;;;;;;;0.10;0.10;;;;;;;19.37;59.11;102448.66;7365126;19;20028;-65
2022/08/09 07:42:32;;;;;;;0.00;0.00;;;;;;;19.44;59.55;102452.84;7360780;19;20007;-65
2022/08/09 07:44:57;;;;;;;0.00;0.00;;;;;;;19.51;59.48;102448.19;7366120;19;20577;-65
2022/08/09 07:47:22;;;;;;;0.10;0.10;;;;;;;19.61;59.79;102459.41;7360347;19;20043;-65
2022/08/09 07:49:48;;;;;;;0.00;0.00;;;;;;;19.67;59.18;102454.81;7356132;19;20086;-65
2022/08/09 07:52:13;;;;;;;0.10;0.10;;;;;;;19.70;59.12;102453.81;7363321;19;20031;-65
2022/08/09 07:54:39;;;;;;;0.00;0.00;;;;;;;19.81;58.99;102449.00;7364305;19;20018;-63
2022/08/09 07:57:05;;;;;;;0.00;0.00;;;;;;;19.88;58.70;102455.88;7360581;19;20474;-65
2022/08/09 07:59:31;;;;;;;0.10;0.10;;;;;;;19.95;58.18;102457.38;7364254;19;20017;-64
2022/08/09 08:01:56;;;;;;;0.10;0.10;;;;;;;20.01;58.77;102453.66;7357985;19;20031;-65
2022/08/09 08:04:22;;;;;;;0.00;0.00;;;;;;;20.06;58.20;102445.53;7358837;19;20010;-65
2022/08/09 08:06:47;;;;;;;0.00;0.00;;;;;;;20.12;58.29;102445.31;7361273;19;20370;-65
2022/08/09 08:09:13;;;;;;;0.10;0.10;;;;;;;20.16;58.16;102449.59;7360856;19;20018;-64
2022/08/09 08:11:38;;;;;;;0.00;0.00;;;;;;;20.15;57.94;102437.25;7340273;19;20018;-64
2022/08/09 08:14:04;;;;;;;0.10;0.10;;;;;;;20.28;57.84;102457.16;7360638;19;20006;-64
2022/08/09 08:16:30;;;;;;;0.00;0.00;;;;;;;20.35;58.08;102458.66;7357247;19;20030;-65
2022/08/09 08:18:56;;;;;;;0.00;0.00;;;;;;;20.42;57.87;102460.16;7359249;19;20014;-65
2022/08/09 08:21:22;;;;;;;0.00;0.00;;;;;;;20.50;58.49;102461.72;7361696;19;22223;-64
2022/08/09 08:23:48;;;;;;;0.00;0.00;;;;;;;20.55;58.14;102454.44;7356210;19;20010;-65
2022/08/09 08:26:13;;;;;;;0.10;0.10;;;;;;;20.65;57.77;102461.16;7363489;19;20017;-65
2022/08/09 08:28:38;;;;;;;0.00;0.00;;;;;;;20.73;57.97;102469.69;7352299;19;20013;-64
2022/08/09 08:31:04;;;;;;;0.00;0.00;;;;;;;20.80;57.98;102460.56;7364096;19;20036;-64
2022/08/09 08:33:29;;;;;;;0.08;0.08;;;;;;;20.80;57.40;102454.41;7355662;19;20074;-64
2022/08/09 08:35:55;;;;;;;0.00;0.00;;;;;;;20.96;57.36;102460.84;7359514;19;20007;-65
2022/08/09 08:38:20;;;;;;;0.00;0.00;;;;;;;21.05;57.23;102464.97;7362166;19;20014;-65
2022/08/09 08:40:46;;;;;;;0.10;0.10;;;;;;;21.11;56.77;102454.97;7357526;19;20025;-64
2022/08/09 08:43:13;;;;;;;0.00;0.00;;;;;;;21.17;57.05;102459.16;7361489;19;20452;-65
2022/08/09 08:45:46;;;;;;;0.00;0.00;;;;;;;21.30;56.10;102454.25;7356709;19;20010;-65
2022/08/09 08:48:12;;;;;;;0.10;0.10;;;;;;;21.34;56.27;102456.75;7358449;19;20816;-66
2022/08/09 08:50:38;;;;;;;0.10;0.10;;;;;;;21.31;56.09;102435.59;7363939;19;20038;-65
2022/08/09 08:53:04;;;;;;;0.00;0.00;;;;;;;21.49;56.23;102456.13;7358740;19;20010;-65
2022/08/09 08:55:29;;;;;;;0.08;0.08;;;;;;;21.57;56.56;102454.94;7359748;19;20017;-64
2022/08/09 08:57:55;;;;;;;0.10;0.10;;;;;;;21.66;56.25;102458.09;7348444;19;20021;-65
2022/08/09 09:00:20;;;;;;;0.00;0.00;;;;;;;21.74;55.82;102452.44;7360563;19;20011;-66
2022/08/09 09:02:47;;;;;;;0.00;0.00;;;;;;;21.84;55.42;102456.44;7354073;19;20022;-64
2022/08/09 09:05:13;;;;;;;;;;;;;;;22.01;53.51;102448.63;7363295;19;20015;-64
2022/08/09 09:07:47;;;;;;;0.10;0.10;;;;;;;22.10;54.21;102449.16;7361370;19;19926;-65
2022/08/09 09:10:13;;;;;;;0.00;0.00;;;;;;;22.18;54.69;102445.25;7359590;19;20458;-65
2022/08/09 09:12:40;;;;;;;0.10;0.10;;;;;;;22.36;54.60;102448.94;7362053;19;20090;-65
2022/08/09 09:15:05;;;;;;;0.00;0.00;;;;;;;22.48;53.96;102427.06;7363345;19;20018;-65
2022/08/09 09:17:33;;;;;;;0.08;0.08;;;;;;;22.84;53.34;102444.09;7363250;19;20042;-65
2022/08/09 09:19:58;;;;;;;0.10;0.10;;;;;;;23.15;53.09;102443.53;7362464;19;20006;-65
2022/08/09 09:22:23;;;;;;;0.10;0.10;;;;;;;23.45;52.96;102431.38;7364720;19;20009;-65
2022/08/09 09:24:51;;;;;;;0.10;0.10;;;;;;;23.82;51.57;102440.22;7362070;19;20014;-66
2022/08/09 09:27:26;;;;;;;0.10;0.10;;;;;;;24.25;50.94;102438.88;7362083;19;20350;-66
2022/08/09 09:29:53;;;;;;;0.10;0.10;;;;;;;24.49;50.48;102442.09;7361374;19;20003;-65
2022/08/09 09:32:25;;;;;;;0.10;0.10;;;;;;;24.81;49.94;102431.47;7357602;19;20018;-65
2022/08/09 09:35:05;;;;;;;0.00;0.00;;;;;;;25.31;49.25;102444.69;7363009;19;20045;-65
2022/08/09 09:37:31;;;;;;;0.10;0.10;;;;;;;25.57;48.24;102442.31;7344118;19;20573;-66
2022/08/09 09:39:56;;;;;;;0.10;0.10;;;;;;;25.91;47.56;102451.94;7349586;19;20036;-66
2022/08/09 09:42:24;;;;;;;0.10;0.10;;;;;;;26.25;45.25;102442.72;7346888;19;20032;-65
2022/08/09 09:45:01;;;;;;;0.10;0.10;;;;;;;26.55;46.18;102431.94;7351553;19;20118;-65
2022/08/09 09:47:27;;;;;;;0.00;0.00;;;;;;;26.93;43.89;102435.84;7352152;19;20616;-65
2022/08/09 09:49:56;;;;;;;0.05;0.05;;;;;;;27.18;44.53;102429.78;7354894;19;20019;-64
2022/08/09 09:52:22;;;;;;;0.10;0.10;;;;;;;27.50;42.79;102425.81;7356769;19;20584;-65
2022/08/09 09:54:47;;;;;;;0.10;0.10;;;;;;;27.94;42.24;102432.72;7357049;19;20018;-65
2022/08/09 09:57:19;;;;;;;0.10;0.10;;;;;;;28.24;42.81;102427.03;7355694;19;20762;-66
2022/08/09 09:59:46;;;;;;;0.10;0.10;;;;;;;28.63;40.34;102442.16;7356067;19;20031;-65
2022/08/09 10:02:12;;;;;;;0.00;0.00;;;;;;;29.00;40.66;102442.25;7355106;19;20010;-66
2022/08/09 10:04:38;;;;;;;0.00;0.00;;;;;;;29.36;40.61;102437.81;7353240;19;20026;-67
2022/08/09 10:07:04;;;;;;;0.10;0.10;;;;;;;29.73;39.78;102439.44;7355104;19;20003;-66
2022/08/09 10:09:47;;;;;;;0.00;0.00;;;;;;;30.33;41.06;102437.50;7356869;19;20042;-66
2022/08/09 10:12:26;;;;;;;0.10;0.10;;;;;;;30.75;40.12;102441.31;7354009;19;20963;-66
2022/08/09 10:15:00;;;;;;;0.05;0.05;;;;;;;31.00;38.95;102434.78;7355464;19;20009;-66
2022/08/09 10:17:32;;;;;;;0.10;0.10;;;;;;;31.38;38.29;102427.25;7356058;19;20458;-65
2022/08/09 10:19:58;;;;;;;0.00;0.00;;;;;;;31.47;37.76;102432.69;7357133;19;20014;-65
2022/08/09 10:22:35;;;;;;;0.10;0.10;;;;;;;31.83;37.76;102432.44;7355330;19;20022;-66
2022/08/09 10:25:06;;;;;;;0.00;0.00;;;;;;;32.14;36.37;102434.22;7354477;19;20042;-63
2022/08/09 10:27:32;;;;;;;0.05;0.05;;;;;;;32.29;36.28;102419.34;7355348;19;20013;-63
2022/08/09 10:30:01;;;;;;;0.00;0.00;;;;;;;32.82;33.43;102439.06;7356817;19;20019;-63
2022/08/09 10:32:27;;;;;;;0.00;0.00;;;;;;;33.19;35.69;102429.31;7350542;19;20772;-63
2022/08/09 10:34:54;;;;;;;0.00;0.00;;;;;;;33.65;33.39;102438.63;7357001;19;20022;-62
2022/08/09 10:37:20;;;;;;;0.03;0.03;;;;;;;34.10;34.21;102435.28;7353973;19;20018;-63
2022/08/09 10:39:46;;;;;;;0.00;0.00;;;;;;;34.50;31.80;102434.19;7356228;19;20051;-64
2022/08/09 10:42:14;;;;;;;0.10;0.10;;;;;;;34.60;31.61;102410.56;7354078;19;20011;-63
2022/08/09 10:44:42;;;;;;;0.00;0.00;;;;;;;34.97;31.46;102428.66;7351786;19;20018;-63
2022/08/09 10:47:22;;;;;;;0.10;0.10;;;;;;;35.21;31.65;102428.06;7354758;19;20368;-63
2022/08/09 10:49:57;;;;;;;0.10;0.10;;;;;;;35.25;31.78;102427.59;7353967;19;20135;-62
2022/08/09 10:52:25;;;;;;;0.00;0.00;;;;;;;35.42;31.30;102428.59;7349997;19;20968;-63
2022/08/09 10:54:52;;;;;;;0.00;0.00;;;;;;;35.50;30.95;102422.44;7350127;19;20442;-63
2022/08/09 10:57:17;;;;;;;0.00;0.00;;;;;;;35.68;31.51;102420.50;7356760;19;20018;-63
2022/08/09 10:59:44;;;;;;;0.00;0.00;;;;;;;35.80;31.37;102394.78;7352327;19;20010;-64
2022/08/09 11:02:17;;;;;;;0.00;0.00;;;;;;;36.32;31.70;102418.41;7353197;19;20021;-63
2022/08/09 11:04:42;;;;;;;0.10;0.10;;;;;;;36.51;29.26;102415.47;7351654;19;20003;-63
2022/08/09 11:07:08;;;;;;;0.10;0.10;;;;;;;36.84;29.78;102416.41;7354551;19;20021;-63
2022/08/09 11:09:36;;;;;;;0.10;0.10;;;;;;;37.30;28.23;102416.84;7351859;19;20038;-63
2022/08/09 11:12:17;;;;;;;0.00;0.00;;;;;;;37.72;27.88;102402.22;7350733;19;20109;-64
2022/08/09 11:15:13;;;;;;;0.10;0.10;;;;;;;38.16;28.25;102407.25;7353835;19;20459;-63
2022/08/09 11:17:43;;;;;;;0.10;0.10;;;;;;;38.62;26.49;102415.63;7250755;19;2004234;-64
2022/08/09 11:20:09;;;;;;;0.10;0.10;;;;;;;38.85;23.17;102405.63;7354750;19;20018;-63
2022/08/09 11:22:43;;;;;;;0.10;0.10;;;;;;;39.29;24.58;102412.34;7349752;19;20018;-63
2022/08/09 11:25:15;;;;;;;0.00;0.00;;;;;;;39.37;25.06;102404.91;7354169;19;20006;-64
2022/08/09 11:27:46;;;;;;;0.10;0.10;;;;;;;39.48;24.07;102402.78;7350529;19;20002;-63